sensor_id;sensor_type;location;lat;lon;timestamp;P1;durP1;ratioP1;P2;durP2;ratioP2
3916;SDS011;1973;50.518;7.318;2023-07-20T00:01:50;5.13;;;3.17;;
3916;SDS011;1973;50.518;7.318;2023-07-20T00:04:17;4.20;;;3.23;;
3916;SDS011;1973;50.518;7.318;2023-07-20T00:06:43;5.33;;;2.70;;
3916;SDS011;1973;50.518;7.318;2023-07-20T00:09:10;4.00;;;2.70;;
3916;SDS011;1973;50.518;7.318;2023-07-20T00:11:37;3.90;;;3.00;;
3916;SDS011;1973;50.518;7.318;2023-07-20T00:14:04;5.67;;;2.77;;
3916;SDS011;1973;50.518;7.318;2023-07-20T00:16:31;3.13;;;2.50;;
3916;SDS011;1973;50.518;7.318;2023-07-20T00:18:58;5.73;;;3.27;;
3916;SDS011;1973;50.518;7.318;2023-07-20T00:21:25;4.60;;;3.10;;
3916;SDS011;1973;50.518;7.318;2023-07-20T00:23:52;4.10;;;2.40;;
3916;SDS011;1973;50.518;7.318;2023-07-20T00:26:19;3.40;;;2.80;;
3916;SDS011;1973;50.518;7.318;2023-07-20T00:28:48;3.87;;;2.57;;
3916;SDS011;1973;50.518;7.318;2023-07-20T00:31:16;5.60;;;3.13;;
3916;SDS011;1973;50.518;7.318;2023-07-20T00:33:43;3.87;;;3.30;;
3916;SDS011;1973;50.518;7.318;2023-07-20T00:36:09;7.20;;;3.47;;
3916;SDS011;1973;50.518;7.318;2023-07-20T00:38:36;4.37;;;3.23;;
3916;SDS011;1973;50.518;7.318;2023-07-20T00:41:02;5.80;;;3.77;;
3916;SDS011;1973;50.518;7.318;2023-07-20T00:43:29;7.03;;;4.13;;
3916;SDS011;1973;50.518;7.318;2023-07-20T00:45:56;8.47;;;4.23;;
3916;SDS011;1973;50.518;7.318;2023-07-20T00:48:22;7.80;;;4.10;;
3916;SDS011;1973;50.518;7.318;2023-07-20T00:50:49;7.93;;;4.17;;
3916;SDS011;1973;50.518;7.318;2023-07-20T00:53:17;8.40;;;4.00;;
3916;SDS011;1973;50.518;7.318;2023-07-20T00:55:43;8.13;;;4.50;;
3916;SDS011;1973;50.518;7.318;2023-07-20T00:58:10;7.77;;;3.50;;
3916;SDS011;1973;50.518;7.318;2023-07-20T01:00:37;6.00;;;4.03;;
3916;SDS011;1973;50.518;7.318;2023-07-20T01:03:04;4.83;;;3.53;;
3916;SDS011;1973;50.518;7.318;2023-07-20T01:05:51;5.50;;;3.43;;
3916;SDS011;1973;50.518;7.318;2023-07-20T01:08:32;6.53;;;3.43;;
3916;SDS011;1973;50.518;7.318;2023-07-20T01:13:57;6.53;;;4.03;;
3916;SDS011;1973;50.518;7.318;2023-07-20T01:16:23;7.20;;;3.87;;
3916;SDS011;1973;50.518;7.318;2023-07-20T01:18:51;7.37;;;3.97;;
3916;SDS011;1973;50.518;7.318;2023-07-20T01:21:25;5.57;;;3.70;;
3916;SDS011;1973;50.518;7.318;2023-07-20T01:26:54;6.50;;;3.57;;
3916;SDS011;1973;50.518;7.318;2023-07-20T01:32:20;8.77;;;3.50;;
3916;SDS011;1973;50.518;7.318;2023-07-20T01:34:50;4.60;;;4.03;;
3916;SDS011;1973;50.518;7.318;2023-07-20T01:37:20;5.10;;;3.70;;
3916;SDS011;1973;50.518;7.318;2023-07-20T01:39:52;7.77;;;3.80;;
3916;SDS011;1973;50.518;7.318;2023-07-20T01:42:21;5.30;;;3.40;;
3916;SDS011;1973;50.518;7.318;2023-07-20T01:44:52;8.47;;;4.20;;
3916;SDS011;1973;50.518;7.318;2023-07-20T01:47:19;5.23;;;3.80;;
3916;SDS011;1973;50.518;7.318;2023-07-20T01:49:46;9.43;;;4.23;;
3916;SDS011;1973;50.518;7.318;2023-07-20T01:52:12;6.33;;;4.17;;
3916;SDS011;1973;50.518;7.318;2023-07-20T01:54:39;6.30;;;3.70;;
3916;SDS011;1973;50.518;7.318;2023-07-20T01:57:06;6.03;;;3.70;;
3916;SDS011;1973;50.518;7.318;2023-07-20T01:59:32;6.20;;;4.00;;
3916;SDS011;1973;50.518;7.318;2023-07-20T02:01:59;6.77;;;3.40;;
3916;SDS011;1973;50.518;7.318;2023-07-20T02:04:25;8.10;;;3.43;;
3916;SDS011;1973;50.518;7.318;2023-07-20T02:06:52;4.90;;;3.50;;
3916;SDS011;1973;50.518;7.318;2023-07-20T02:09:18;6.53;;;3.40;;
3916;SDS011;1973;50.518;7.318;2023-07-20T02:11:46;5.60;;;3.87;;
3916;SDS011;1973;50.518;7.318;2023-07-20T02:14:12;4.67;;;3.40;;
3916;SDS011;1973;50.518;7.318;2023-07-20T02:16:39;5.03;;;4.13;;
3916;SDS011;1973;50.518;7.318;2023-07-20T02:19:05;5.00;;;3.40;;
3916;SDS011;1973;50.518;7.318;2023-07-20T02:21:33;6.60;;;4.10;;
3916;SDS011;1973;50.518;7.318;2023-07-20T02:24:00;5.83;;;4.10;;
3916;SDS011;1973;50.518;7.318;2023-07-20T02:26:26;5.13;;;3.53;;
3916;SDS011;1973;50.518;7.318;2023-07-20T02:28:53;4.90;;;3.93;;
3916;SDS011;1973;50.518;7.318;2023-07-20T02:31:20;4.67;;;3.80;;
3916;SDS011;1973;50.518;7.318;2023-07-20T02:33:46;5.27;;;3.77;;
3916;SDS011;1973;50.518;7.318;2023-07-20T02:36:13;4.53;;;3.60;;
3916;SDS011;1973;50.518;7.318;2023-07-20T02:38:39;5.60;;;3.73;;
3916;SDS011;1973;50.518;7.318;2023-07-20T02:41:06;7.63;;;4.23;;
3916;SDS011;1973;50.518;7.318;2023-07-20T02:43:32;5.33;;;4.10;;
3916;SDS011;1973;50.518;7.318;2023-07-20T02:45:59;4.83;;;3.50;;
3916;SDS011;1973;50.518;7.318;2023-07-20T02:48:25;3.33;;;3.03;;
3916;SDS011;1973;50.518;7.318;2023-07-20T02:50:52;4.83;;;3.60;;
3916;SDS011;1973;50.518;7.318;2023-07-20T02:53:18;5.67;;;3.30;;
3916;SDS011;1973;50.518;7.318;2023-07-20T02:55:45;7.90;;;4.33;;
3916;SDS011;1973;50.518;7.318;2023-07-20T02:58:12;6.03;;;3.40;;
3916;SDS011;1973;50.518;7.318;2023-07-20T03:00:38;5.87;;;3.27;;
3916;SDS011;1973;50.518;7.318;2023-07-20T03:03:05;7.73;;;3.33;;
3916;SDS011;1973;50.518;7.318;2023-07-20T03:05:36;3.70;;;3.03;;
3916;SDS011;1973;50.518;7.318;2023-07-20T03:08:05;4.47;;;3.23;;
3916;SDS011;1973;50.518;7.318;2023-07-20T03:10:32;4.83;;;3.90;;
3916;SDS011;1973;50.518;7.318;2023-07-20T03:12:59;3.20;;;2.90;;
3916;SDS011;1973;50.518;7.318;2023-07-20T03:15:25;10.30;;;3.70;;
3916;SDS011;1973;50.518;7.318;2023-07-20T03:17:52;4.87;;;3.30;;
3916;SDS011;1973;50.518;7.318;2023-07-20T03:20:18;4.70;;;3.60;;
3916;SDS011;1973;50.518;7.318;2023-07-20T03:22:45;5.40;;;3.03;;
3916;SDS011;1973;50.518;7.318;2023-07-20T03:25:12;5.50;;;4.13;;
3916;SDS011;1973;50.518;7.318;2023-07-20T03:27:39;4.33;;;3.30;;
3916;SDS011;1973;50.518;7.318;2023-07-20T03:30:06;5.40;;;3.37;;
3916;SDS011;1973;50.518;7.318;2023-07-20T03:32:33;4.50;;;3.40;;
3916;SDS011;1973;50.518;7.318;2023-07-20T03:35:00;5.47;;;3.37;;
3916;SDS011;1973;50.518;7.318;2023-07-20T03:37:26;5.67;;;3.90;;
3916;SDS011;1973;50.518;7.318;2023-07-20T03:39:53;5.53;;;3.30;;
3916;SDS011;1973;50.518;7.318;2023-07-20T03:42:19;4.90;;;3.33;;
3916;SDS011;1973;50.518;7.318;2023-07-20T03:44:46;4.93;;;3.50;;
3916;SDS011;1973;50.518;7.318;2023-07-20T03:47:13;4.27;;;3.30;;
3916;SDS011;1973;50.518;7.318;2023-07-20T03:49:39;4.80;;;3.77;;
3916;SDS011;1973;50.518;7.318;2023-07-20T03:52:06;5.50;;;3.80;;
3916;SDS011;1973;50.518;7.318;2023-07-20T03:54:32;4.67;;;3.50;;
3916;SDS011;1973;50.518;7.318;2023-07-20T03:56:59;3.30;;;3.00;;
3916;SDS011;1973;50.518;7.318;2023-07-20T03:59:26;5.93;;;3.73;;
3916;SDS011;1973;50.518;7.318;2023-07-20T04:01:53;4.60;;;3.50;;
3916;SDS011;1973;50.518;7.318;2023-07-20T04:04:20;7.13;;;3.33;;
3916;SDS011;1973;50.518;7.318;2023-07-20T04:06:46;4.60;;;3.67;;
3916;SDS011;1973;50.518;7.318;2023-07-20T04:09:13;4.53;;;3.67;;
3916;SDS011;1973;50.518;7.318;2023-07-20T04:11:40;5.30;;;3.57;;
3916;SDS011;1973;50.518;7.318;2023-07-20T04:14:06;3.90;;;3.47;;
3916;SDS011;1973;50.518;7.318;2023-07-20T04:16:33;4.20;;;3.20;;
3916;SDS011;1973;50.518;7.318;2023-07-20T04:19:00;3.97;;;3.57;;
3916;SDS011;1973;50.518;7.318;2023-07-20T04:21:26;4.30;;;3.07;;
3916;SDS011;1973;50.518;7.318;2023-07-20T04:23:53;3.83;;;3.40;;
3916;SDS011;1973;50.518;7.318;2023-07-20T04:26:20;5.27;;;3.53;;
3916;SDS011;1973;50.518;7.318;2023-07-20T04:28:47;4.60;;;3.70;;
3916;SDS011;1973;50.518;7.318;2023-07-20T04:31:14;4.17;;;3.77;;
3916;SDS011;1973;50.518;7.318;2023-07-20T04:33:42;4.60;;;3.50;;
3916;SDS011;1973;50.518;7.318;2023-07-20T04:36:08;4.50;;;3.37;;
3916;SDS011;1973;50.518;7.318;2023-07-20T04:38:35;3.67;;;3.20;;
3916;SDS011;1973;50.518;7.318;2023-07-20T04:41:01;5.73;;;3.90;;
3916;SDS011;1973;50.518;7.318;2023-07-20T04:43:28;7.20;;;3.77;;
3916;SDS011;1973;50.518;7.318;2023-07-20T04:45:55;5.33;;;3.87;;
3916;SDS011;1973;50.518;7.318;2023-07-20T04:48:22;4.23;;;3.37;;
3916;SDS011;1973;50.518;7.318;2023-07-20T04:50:48;6.60;;;3.63;;
3916;SDS011;1973;50.518;7.318;2023-07-20T04:53:15;7.70;;;3.63;;
3916;SDS011;1973;50.518;7.318;2023-07-20T04:55:47;5.50;;;3.97;;
3916;SDS011;1973;50.518;7.318;2023-07-20T04:58:20;5.13;;;3.57;;
3916;SDS011;1973;50.518;7.318;2023-07-20T05:00:48;4.40;;;3.87;;
3916;SDS011;1973;50.518;7.318;2023-07-20T05:03:17;8.30;;;6.10;;
3916;SDS011;1973;50.518;7.318;2023-07-20T05:05:44;5.60;;;4.30;;
3916;SDS011;1973;50.518;7.318;2023-07-20T05:08:14;7.07;;;4.87;;
3916;SDS011;1973;50.518;7.318;2023-07-20T05:10:40;5.50;;;4.53;;
3916;SDS011;1973;50.518;7.318;2023-07-20T05:13:07;5.93;;;4.57;;
3916;SDS011;1973;50.518;7.318;2023-07-20T05:15:34;4.57;;;4.17;;
3916;SDS011;1973;50.518;7.318;2023-07-20T05:18:01;5.37;;;3.70;;
3916;SDS011;1973;50.518;7.318;2023-07-20T05:20:27;4.37;;;3.33;;
3916;SDS011;1973;50.518;7.318;2023-07-20T05:22:54;5.13;;;4.20;;
3916;SDS011;1973;50.518;7.318;2023-07-20T05:25:21;4.50;;;3.30;;
3916;SDS011;1973;50.518;7.318;2023-07-20T05:27:49;3.70;;;3.30;;
3916;SDS011;1973;50.518;7.318;2023-07-20T05:30:16;3.90;;;3.50;;
3916;SDS011;1973;50.518;7.318;2023-07-20T05:32:43;4.70;;;3.60;;
3916;SDS011;1973;50.518;7.318;2023-07-20T05:35:11;4.57;;;3.40;;
3916;SDS011;1973;50.518;7.318;2023-07-20T05:37:38;5.17;;;3.87;;
3916;SDS011;1973;50.518;7.318;2023-07-20T05:40:05;4.40;;;3.80;;
3916;SDS011;1973;50.518;7.318;2023-07-20T05:42:34;4.50;;;3.80;;
3916;SDS011;1973;50.518;7.318;2023-07-20T05:45:00;4.70;;;3.50;;
3916;SDS011;1973;50.518;7.318;2023-07-20T05:47:27;5.10;;;4.20;;
3916;SDS011;1973;50.518;7.318;2023-07-20T05:49:53;6.07;;;4.20;;
3916;SDS011;1973;50.518;7.318;2023-07-20T05:52:20;5.03;;;4.07;;
3916;SDS011;1973;50.518;7.318;2023-07-20T05:54:46;8.33;;;4.60;;
3916;SDS011;1973;50.518;7.318;2023-07-20T05:57:13;5.27;;;3.13;;
3916;SDS011;1973;50.518;7.318;2023-07-20T05:59:41;7.07;;;4.37;;
3916;SDS011;1973;50.518;7.318;2023-07-20T06:02:10;5.63;;;4.67;;
3916;SDS011;1973;50.518;7.318;2023-07-20T06:04:38;7.13;;;4.40;;
3916;SDS011;1973;50.518;7.318;2023-07-20T06:07:05;5.20;;;4.50;;
3916;SDS011;1973;50.518;7.318;2023-07-20T06:09:34;8.00;;;4.87;;
3916;SDS011;1973;50.518;7.318;2023-07-20T06:12:00;7.20;;;5.00;;
3916;SDS011;1973;50.518;7.318;2023-07-20T06:14:27;6.57;;;4.47;;
3916;SDS011;1973;50.518;7.318;2023-07-20T06:16:53;5.10;;;4.10;;
3916;SDS011;1973;50.518;7.318;2023-07-20T06:19:20;7.03;;;4.80;;
3916;SDS011;1973;50.518;7.318;2023-07-20T06:21:48;6.20;;;4.30;;
3916;SDS011;1973;50.518;7.318;2023-07-20T06:24:16;5.20;;;4.47;;
3916;SDS011;1973;50.518;7.318;2023-07-20T06:26:43;6.93;;;4.70;;
3916;SDS011;1973;50.518;7.318;2023-07-20T06:29:10;5.20;;;4.10;;
3916;SDS011;1973;50.518;7.318;2023-07-20T06:31:37;5.37;;;4.40;;
3916;SDS011;1973;50.518;7.318;2023-07-20T06:34:03;5.20;;;4.70;;
3916;SDS011;1973;50.518;7.318;2023-07-20T06:36:30;9.30;;;4.83;;
3916;SDS011;1973;50.518;7.318;2023-07-20T06:38:57;8.73;;;4.50;;
3916;SDS011;1973;50.518;7.318;2023-07-20T06:41:26;10.57;;;5.10;;
3916;SDS011;1973;50.518;7.318;2023-07-20T06:43:56;7.33;;;5.00;;
3916;SDS011;1973;50.518;7.318;2023-07-20T06:46:25;6.10;;;4.90;;
3916;SDS011;1973;50.518;7.318;2023-07-20T06:48:53;6.43;;;5.30;;
3916;SDS011;1973;50.518;7.318;2023-07-20T06:51:23;8.50;;;4.80;;
3916;SDS011;1973;50.518;7.318;2023-07-20T06:53:50;7.63;;;4.70;;
3916;SDS011;1973;50.518;7.318;2023-07-20T06:56:16;11.70;;;5.20;;
3916;SDS011;1973;50.518;7.318;2023-07-20T06:58:43;6.60;;;5.13;;
3916;SDS011;1973;50.518;7.318;2023-07-20T07:01:09;9.03;;;5.63;;
3916;SDS011;1973;50.518;7.318;2023-07-20T07:03:36;12.40;;;8.53;;
3916;SDS011;1973;50.518;7.318;2023-07-20T07:06:03;8.57;;;6.33;;
3916;SDS011;1973;50.518;7.318;2023-07-20T07:08:30;8.87;;;6.17;;
3916;SDS011;1973;50.518;7.318;2023-07-20T07:10:56;10.43;;;5.93;;
3916;SDS011;1973;50.518;7.318;2023-07-20T07:13:23;8.67;;;5.70;;
3916;SDS011;1973;50.518;7.318;2023-07-20T07:15:50;7.83;;;5.23;;
3916;SDS011;1973;50.518;7.318;2023-07-20T07:18:17;8.60;;;5.10;;
3916;SDS011;1973;50.518;7.318;2023-07-20T07:20:50;6.70;;;5.13;;
3916;SDS011;1973;50.518;7.318;2023-07-20T07:23:18;5.90;;;5.00;;
3916;SDS011;1973;50.518;7.318;2023-07-20T07:25:45;7.50;;;5.40;;
3916;SDS011;1973;50.518;7.318;2023-07-20T07:28:11;7.40;;;5.80;;
3916;SDS011;1973;50.518;7.318;2023-07-20T07:30:38;8.43;;;5.30;;
3916;SDS011;1973;50.518;7.318;2023-07-20T07:33:05;7.80;;;5.40;;
3916;SDS011;1973;50.518;7.318;2023-07-20T07:35:31;10.23;;;5.10;;
3916;SDS011;1973;50.518;7.318;2023-07-20T07:37:58;6.50;;;5.73;;
3916;SDS011;1973;50.518;7.318;2023-07-20T07:40:45;8.67;;;5.73;;
3916;SDS011;1973;50.518;7.318;2023-07-20T07:43:12;5.77;;;5.17;;
3916;SDS011;1973;50.518;7.318;2023-07-20T07:45:40;4.63;;;4.13;;
3916;SDS011;1973;50.518;7.318;2023-07-20T07:48:07;5.63;;;4.50;;
3916;SDS011;1973;50.518;7.318;2023-07-20T07:50:34;7.50;;;5.50;;
3916;SDS011;1973;50.518;7.318;2023-07-20T07:53:01;7.67;;;4.60;;
3916;SDS011;1973;50.518;7.318;2023-07-20T07:55:27;5.97;;;4.73;;
3916;SDS011;1973;50.518;7.318;2023-07-20T07:57:54;4.90;;;4.10;;
3916;SDS011;1973;50.518;7.318;2023-07-20T08:00:21;6.50;;;4.90;;
3916;SDS011;1973;50.518;7.318;2023-07-20T08:02:49;7.90;;;5.43;;
3916;SDS011;1973;50.518;7.318;2023-07-20T08:05:16;5.77;;;4.50;;
3916;SDS011;1973;50.518;7.318;2023-07-20T08:07:43;4.90;;;4.40;;
3916;SDS011;1973;50.518;7.318;2023-07-20T08:10:10;5.27;;;4.07;;
3916;SDS011;1973;50.518;7.318;2023-07-20T08:12:37;6.43;;;4.00;;
3916;SDS011;1973;50.518;7.318;2023-07-20T08:15:04;4.67;;;4.03;;
3916;SDS011;1973;50.518;7.318;2023-07-20T08:17:31;4.43;;;3.57;;
3916;SDS011;1973;50.518;7.318;2023-07-20T08:19:57;8.20;;;3.57;;
3916;SDS011;1973;50.518;7.318;2023-07-20T08:22:24;5.00;;;4.17;;
3916;SDS011;1973;50.518;7.318;2023-07-20T08:24:50;5.53;;;4.70;;
3916;SDS011;1973;50.518;7.318;2023-07-20T08:27:17;5.00;;;4.17;;
3916;SDS011;1973;50.518;7.318;2023-07-20T08:29:44;4.40;;;4.00;;
3916;SDS011;1973;50.518;7.318;2023-07-20T08:32:10;4.50;;;3.87;;
3916;SDS011;1973;50.518;7.318;2023-07-20T08:34:37;3.30;;;2.80;;
3916;SDS011;1973;50.518;7.318;2023-07-20T08:37:03;3.33;;;3.03;;
3916;SDS011;1973;50.518;7.318;2023-07-20T08:39:30;4.37;;;3.20;;
3916;SDS011;1973;50.518;7.318;2023-07-20T08:41:58;4.80;;;2.73;;
3916;SDS011;1973;50.518;7.318;2023-07-20T08:44:31;4.27;;;3.10;;
3916;SDS011;1973;50.518;7.318;2023-07-20T08:47:00;6.70;;;5.30;;
3916;SDS011;1973;50.518;7.318;2023-07-20T08:49:32;4.20;;;3.03;;
3916;SDS011;1973;50.518;7.318;2023-07-20T08:52:00;4.40;;;3.00;;
3916;SDS011;1973;50.518;7.318;2023-07-20T08:54:28;6.40;;;4.87;;
3916;SDS011;1973;50.518;7.318;2023-07-20T08:57:02;6.50;;;4.10;;
3916;SDS011;1973;50.518;7.318;2023-07-20T08:59:30;3.90;;;3.17;;
3916;SDS011;1973;50.518;7.318;2023-07-20T09:01:58;5.17;;;3.67;;
3916;SDS011;1973;50.518;7.318;2023-07-20T09:04:26;4.10;;;2.90;;
3916;SDS011;1973;50.518;7.318;2023-07-20T09:06:53;5.97;;;2.43;;
3916;SDS011;1973;50.518;7.318;2023-07-20T09:09:19;4.40;;;3.50;;
3916;SDS011;1973;50.518;7.318;2023-07-20T09:11:47;4.50;;;3.33;;
3916;SDS011;1973;50.518;7.318;2023-07-20T09:14:15;6.73;;;3.87;;
3916;SDS011;1973;50.518;7.318;2023-07-20T09:16:49;3.97;;;2.97;;
3916;SDS011;1973;50.518;7.318;2023-07-20T09:19:17;5.37;;;2.87;;
3916;SDS011;1973;50.518;7.318;2023-07-20T09:21:44;5.30;;;3.20;;
3916;SDS011;1973;50.518;7.318;2023-07-20T09:24:12;5.47;;;2.87;;
3916;SDS011;1973;50.518;7.318;2023-07-20T09:26:42;3.27;;;2.97;;
3916;SDS011;1973;50.518;7.318;2023-07-20T09:29:10;7.03;;;3.10;;
3916;SDS011;1973;50.518;7.318;2023-07-20T09:31:37;5.43;;;3.33;;
3916;SDS011;1973;50.518;7.318;2023-07-20T09:34:07;6.47;;;3.90;;
3916;SDS011;1973;50.518;7.318;2023-07-20T09:36:35;4.57;;;3.13;;
3916;SDS011;1973;50.518;7.318;2023-07-20T09:39:05;5.20;;;2.90;;
3916;SDS011;1973;50.518;7.318;2023-07-20T09:41:41;4.37;;;3.00;;
3916;SDS011;1973;50.518;7.318;2023-07-20T09:44:15;5.07;;;2.77;;
3916;SDS011;1973;50.518;7.318;2023-07-20T09:46:48;2.97;;;2.63;;
3916;SDS011;1973;50.518;7.318;2023-07-20T09:49:18;4.27;;;3.17;;
3916;SDS011;1973;50.518;7.318;2023-07-20T09:51:48;5.60;;;3.03;;
3916;SDS011;1973;50.518;7.318;2023-07-20T09:54:14;3.67;;;3.10;;
3916;SDS011;1973;50.518;7.318;2023-07-20T09:56:42;6.80;;;4.10;;
3916;SDS011;1973;50.518;7.318;2023-07-20T09:59:09;2.40;;;2.17;;
3916;SDS011;1973;50.518;7.318;2023-07-20T10:01:36;5.40;;;2.40;;
3916;SDS011;1973;50.518;7.318;2023-07-20T10:04:07;2.40;;;1.77;;
3916;SDS011;1973;50.518;7.318;2023-07-20T10:06:35;2.27;;;1.93;;
3916;SDS011;1973;50.518;7.318;2023-07-20T10:09:08;2.93;;;1.93;;
3916;SDS011;1973;50.518;7.318;2023-07-20T10:11:39;2.83;;;2.07;;
3916;SDS011;1973;50.518;7.318;2023-07-20T10:14:09;2.27;;;1.57;;
3916;SDS011;1973;50.518;7.318;2023-07-20T10:16:46;2.80;;;1.73;;
3916;SDS011;1973;50.518;7.318;2023-07-20T10:22:25;2.20;;;1.83;;
3916;SDS011;1973;50.518;7.318;2023-07-20T10:24:53;2.33;;;1.90;;
3916;SDS011;1973;50.518;7.318;2023-07-20T10:27:20;2.40;;;2.13;;
3916;SDS011;1973;50.518;7.318;2023-07-20T10:29:47;3.00;;;2.70;;
3916;SDS011;1973;50.518;7.318;2023-07-20T10:32:15;4.00;;;2.70;;
3916;SDS011;1973;50.518;7.318;2023-07-20T10:34:41;3.63;;;2.47;;
3916;SDS011;1973;50.518;7.318;2023-07-20T10:37:08;3.13;;;1.70;;
3916;SDS011;1973;50.518;7.318;2023-07-20T10:39:34;3.87;;;2.00;;
3916;SDS011;1973;50.518;7.318;2023-07-20T10:42:08;2.03;;;1.70;;
3916;SDS011;1973;50.518;7.318;2023-07-20T10:44:39;2.30;;;2.10;;
3916;SDS011;1973;50.518;7.318;2023-07-20T10:47:09;2.80;;;2.10;;
3916;SDS011;1973;50.518;7.318;2023-07-20T10:52:24;2.80;;;2.10;;
3916;SDS011;1973;50.518;7.318;2023-07-20T10:54:51;3.03;;;2.33;;
3916;SDS011;1973;50.518;7.318;2023-07-20T10:57:30;2.00;;;1.80;;
3916;SDS011;1973;50.518;7.318;2023-07-20T11:00:11;1.60;;;1.33;;
3916;SDS011;1973;50.518;7.318;2023-07-20T11:02:46;2.63;;;2.33;;
3916;SDS011;1973;50.518;7.318;2023-07-20T11:05:31;3.23;;;2.93;;
3916;SDS011;1973;50.518;7.318;2023-07-20T11:08:03;2.10;;;1.60;;
3916;SDS011;1973;50.518;7.318;2023-07-20T11:10:31;5.50;;;2.60;;
3916;SDS011;1973;50.518;7.318;2023-07-20T11:13:17;6.63;;;2.10;;
3916;SDS011;1973;50.518;7.318;2023-07-20T11:18:27;2.73;;;2.33;;
3916;SDS011;1973;50.518;7.318;2023-07-20T11:20:54;3.63;;;2.80;;
3916;SDS011;1973;50.518;7.318;2023-07-20T11:23:21;2.70;;;1.70;;
3916;SDS011;1973;50.518;7.318;2023-07-20T11:25:49;2.10;;;1.77;;
3916;SDS011;1973;50.518;7.318;2023-07-20T11:28:16;2.90;;;1.63;;
3916;SDS011;1973;50.518;7.318;2023-07-20T11:30:43;1.57;;;1.47;;
3916;SDS011;1973;50.518;7.318;2023-07-20T11:33:11;1.70;;;1.60;;
3916;SDS011;1973;50.518;7.318;2023-07-20T11:35:48;1.80;;;1.70;;
3916;SDS011;1973;50.518;7.318;2023-07-20T11:38:17;3.70;;;1.70;;
3916;SDS011;1973;50.518;7.318;2023-07-20T11:40:44;2.97;;;1.40;;
3916;SDS011;1973;50.518;7.318;2023-07-20T11:43:14;2.70;;;1.50;;
3916;SDS011;1973;50.518;7.318;2023-07-20T11:45:45;2.53;;;2.00;;
3916;SDS011;1973;50.518;7.318;2023-07-20T11:48:15;3.27;;;2.93;;
3916;SDS011;1973;50.518;7.318;2023-07-20T11:50:42;2.73;;;2.53;;
3916;SDS011;1973;50.518;7.318;2023-07-20T11:53:09;2.90;;;2.10;;
3916;SDS011;1973;50.518;7.318;2023-07-20T11:55:36;2.27;;;2.07;;
3916;SDS011;1973;50.518;7.318;2023-07-20T11:58:03;3.53;;;1.63;;
3916;SDS011;1973;50.518;7.318;2023-07-20T12:00:31;2.03;;;1.70;;
3916;SDS011;1973;50.518;7.318;2023-07-20T12:03:04;1.37;;;1.13;;
3916;SDS011;1973;50.518;7.318;2023-07-20T12:05:33;2.33;;;1.77;;
3916;SDS011;1973;50.518;7.318;2023-07-20T12:08:20;2.13;;;1.57;;
3916;SDS011;1973;50.518;7.318;2023-07-20T12:10:48;3.40;;;1.97;;
3916;SDS011;1973;50.518;7.318;2023-07-20T12:13:15;2.33;;;1.90;;
3916;SDS011;1973;50.518;7.318;2023-07-20T12:15:42;1.40;;;1.20;;
3916;SDS011;1973;50.518;7.318;2023-07-20T12:18:10;4.30;;;1.90;;
3916;SDS011;1973;50.518;7.318;2023-07-20T12:20:37;1.77;;;1.60;;
3916;SDS011;1973;50.518;7.318;2023-07-20T12:23:07;2.10;;;1.60;;
3916;SDS011;1973;50.518;7.318;2023-07-20T12:25:43;2.13;;;1.50;;
3916;SDS011;1973;50.518;7.318;2023-07-20T12:28:11;2.67;;;1.57;;
3916;SDS011;1973;50.518;7.318;2023-07-20T12:30:42;4.70;;;1.33;;
3916;SDS011;1973;50.518;7.318;2023-07-20T12:33:10;1.93;;;1.43;;
3916;SDS011;1973;50.518;7.318;2023-07-20T12:35:46;2.27;;;1.40;;
3916;SDS011;1973;50.518;7.318;2023-07-20T12:38:13;2.53;;;1.67;;
3916;SDS011;1973;50.518;7.318;2023-07-20T12:40:39;2.30;;;1.70;;
3916;SDS011;1973;50.518;7.318;2023-07-20T12:43:07;2.60;;;1.97;;
3916;SDS011;1973;50.518;7.318;2023-07-20T12:45:33;2.80;;;2.50;;
3916;SDS011;1973;50.518;7.318;2023-07-20T12:48:00;2.50;;;2.00;;
3916;SDS011;1973;50.518;7.318;2023-07-20T12:50:27;4.67;;;2.60;;
3916;SDS011;1973;50.518;7.318;2023-07-20T12:52:53;2.00;;;1.70;;
3916;SDS011;1973;50.518;7.318;2023-07-20T12:55:20;1.87;;;1.73;;
3916;SDS011;1973;50.518;7.318;2023-07-20T12:57:47;2.37;;;2.03;;
3916;SDS011;1973;50.518;7.318;2023-07-20T13:00:13;1.90;;;1.50;;
3916;SDS011;1973;50.518;7.318;2023-07-20T13:02:40;2.00;;;1.70;;
3916;SDS011;1973;50.518;7.318;2023-07-20T13:05:08;2.53;;;1.63;;
3916;SDS011;1973;50.518;7.318;2023-07-20T13:07:35;3.00;;;2.47;;
3916;SDS011;1973;50.518;7.318;2023-07-20T13:10:07;3.10;;;2.37;;
3916;SDS011;1973;50.518;7.318;2023-07-20T13:12:35;4.90;;;2.67;;
3916;SDS011;1973;50.518;7.318;2023-07-20T13:15:02;3.43;;;2.50;;
3916;SDS011;1973;50.518;7.318;2023-07-20T13:17:38;2.43;;;1.50;;
3916;SDS011;1973;50.518;7.318;2023-07-20T13:20:06;3.70;;;2.00;;
3916;SDS011;1973;50.518;7.318;2023-07-20T13:22:37;2.17;;;1.90;;
3916;SDS011;1973;50.518;7.318;2023-07-20T13:25:04;2.00;;;1.57;;
3916;SDS011;1973;50.518;7.318;2023-07-20T13:27:32;4.50;;;1.83;;
3916;SDS011;1973;50.518;7.318;2023-07-20T13:29:59;3.03;;;2.17;;
3916;SDS011;1973;50.518;7.318;2023-07-20T13:32:36;2.40;;;1.80;;
3916;SDS011;1973;50.518;7.318;2023-07-20T13:35:02;1.77;;;1.37;;
3916;SDS011;1973;50.518;7.318;2023-07-20T13:37:29;2.07;;;1.40;;
3916;SDS011;1973;50.518;7.318;2023-07-20T13:39:56;1.87;;;1.40;;
3916;SDS011;1973;50.518;7.318;2023-07-20T13:42:23;2.17;;;1.40;;
3916;SDS011;1973;50.518;7.318;2023-07-20T13:44:49;2.73;;;1.60;;
3916;SDS011;1973;50.518;7.318;2023-07-20T13:47:16;1.87;;;1.50;;
3916;SDS011;1973;50.518;7.318;2023-07-20T13:49:45;2.00;;;1.43;;
3916;SDS011;1973;50.518;7.318;2023-07-20T13:52:13;2.10;;;1.50;;
3916;SDS011;1973;50.518;7.318;2023-07-20T13:54:43;2.53;;;2.13;;
3916;SDS011;1973;50.518;7.318;2023-07-20T13:57:13;4.37;;;2.20;;
3916;SDS011;1973;50.518;7.318;2023-07-20T13:59:41;2.73;;;2.00;;
3916;SDS011;1973;50.518;7.318;2023-07-20T14:02:08;2.80;;;2.13;;
3916;SDS011;1973;50.518;7.318;2023-07-20T14:04:37;1.87;;;1.67;;
3916;SDS011;1973;50.518;7.318;2023-07-20T14:07:04;1.97;;;1.77;;
3916;SDS011;1973;50.518;7.318;2023-07-20T14:09:31;2.30;;;2.10;;
3916;SDS011;1973;50.518;7.318;2023-07-20T14:11:58;2.67;;;2.27;;
3916;SDS011;1973;50.518;7.318;2023-07-20T14:14:28;3.10;;;1.80;;
3916;SDS011;1973;50.518;7.318;2023-07-20T14:16:54;3.20;;;1.90;;
3916;SDS011;1973;50.518;7.318;2023-07-20T14:19:22;2.23;;;1.70;;
3916;SDS011;1973;50.518;7.318;2023-07-20T14:21:49;2.13;;;1.93;;
3916;SDS011;1973;50.518;7.318;2023-07-20T14:24:15;2.80;;;2.07;;
3916;SDS011;1973;50.518;7.318;2023-07-20T14:26:44;2.53;;;1.53;;
3916;SDS011;1973;50.518;7.318;2023-07-20T14:29:12;2.70;;;2.03;;
3916;SDS011;1973;50.518;7.318;2023-07-20T14:31:39;1.60;;;1.50;;
3916;SDS011;1973;50.518;7.318;2023-07-20T14:34:05;2.20;;;1.80;;
3916;SDS011;1973;50.518;7.318;2023-07-20T14:36:32;2.20;;;1.40;;
3916;SDS011;1973;50.518;7.318;2023-07-20T14:39:00;2.20;;;1.60;;
3916;SDS011;1973;50.518;7.318;2023-07-20T14:41:26;2.23;;;1.50;;
3916;SDS011;1973;50.518;7.318;2023-07-20T14:43:53;3.87;;;1.80;;
3916;SDS011;1973;50.518;7.318;2023-07-20T14:46:20;2.13;;;1.70;;
3916;SDS011;1973;50.518;7.318;2023-07-20T14:48:47;3.40;;;1.37;;
3916;SDS011;1973;50.518;7.318;2023-07-20T14:51:14;1.70;;;1.43;;
3916;SDS011;1973;50.518;7.318;2023-07-20T14:53:40;3.60;;;2.27;;
3916;SDS011;1973;50.518;7.318;2023-07-20T14:56:08;3.57;;;1.73;;
3916;SDS011;1973;50.518;7.318;2023-07-20T14:58:34;3.80;;;2.40;;
3916;SDS011;1973;50.518;7.318;2023-07-20T15:01:01;2.50;;;2.20;;
3916;SDS011;1973;50.518;7.318;2023-07-20T15:03:29;1.90;;;1.67;;
3916;SDS011;1973;50.518;7.318;2023-07-20T15:05:57;3.73;;;1.60;;
3916;SDS011;1973;50.518;7.318;2023-07-20T15:08:24;4.20;;;2.20;;
3916;SDS011;1973;50.518;7.318;2023-07-20T15:10:51;2.50;;;2.10;;
3916;SDS011;1973;50.518;7.318;2023-07-20T15:13:17;2.10;;;1.80;;
3916;SDS011;1973;50.518;7.318;2023-07-20T15:15:44;2.47;;;2.27;;
3916;SDS011;1973;50.518;7.318;2023-07-20T15:18:10;3.20;;;2.03;;
3916;SDS011;1973;50.518;7.318;2023-07-20T15:20:37;1.70;;;1.60;;
3916;SDS011;1973;50.518;7.318;2023-07-20T15:23:04;1.97;;;1.63;;
3916;SDS011;1973;50.518;7.318;2023-07-20T15:25:30;2.33;;;2.00;;
3916;SDS011;1973;50.518;7.318;2023-07-20T15:27:57;3.13;;;1.73;;
3916;SDS011;1973;50.518;7.318;2023-07-20T15:30:24;2.43;;;2.10;;
3916;SDS011;1973;50.518;7.318;2023-07-20T15:32:53;4.07;;;2.67;;
3916;SDS011;1973;50.518;7.318;2023-07-20T15:35:24;3.03;;;2.30;;
3916;SDS011;1973;50.518;7.318;2023-07-20T15:37:51;2.20;;;1.70;;